Portada
METAR-TAF:

METAR-TAF

Aeroports :

Casement Aerodrome

Dublín, Irlanda

latitud: 53-18-06N, longitud: 6-27-04W, altitud: 97 m

Observació

L'informe es va fer fa 1 hora i 55 minuts, a les 00:00 UTC
Vent 3 kt del Est, variant entre Nord-Est i Sud-Est
Temperatura 11°C
Humitat 94%
Pressió 1022 hPa
Visibilitat 10 km o més
Escasses núvols a una alçada de 2200 ft

METAR: EIME 200000Z 09003KT 050V140 9999 FEW022 11/10 Q1022

Hora: 02:55 (01:55 UTC)

Pronòstic

L'informe es va fer fa 2 hores i 55 minuts, a les 23:00 UTC
Pronòstic vàlid del 20 a les 00 UTC al 20 a les 09 UTC
Vent 8 kt del Est
Visibilitat 10 km o més
Escasses núvols a una alçada de 2000 ft
Probabilitat 40% :
Temporalment
l' 20 a les 03 UTC al 20 a les 09 UTC
Cel ennuvolat a una alçada de 1200 ft

TAF: EIME 192300Z 2000/2009 08008KT 9999 FEW020 PROB40 TEMPO 2003/2009 BKN012

Observacions i pronòstics meteorològics de més de 4000 aeroports (METAR i TAF).

Les estacions disponibles són els punts grocs i vermells al mapa.

Posi el ratolí al punt desitjat per veure el nom de l'estació.

Feu clic per veure les observacions i els pronòstics meteorològics.

Per canviar el mapa: feu clic els botons verds amb una creu de color negre per apropar; al botó verd amb un guió per allunyar la imatge; o en les fletxes verdes per a mapes adjacents.


METAR-TAF: